sensor_id;sensor_type;location;lat;lon;timestamp;P1;durP1;ratioP1;P2;durP2;ratioP2
70010;SDS011;59543;37.950;-122.338;2023-08-31T00:02:24;48.80;;;24.30;;
70010;SDS011;59543;37.950;-122.338;2023-08-31T00:04:51;40.42;;;23.60;;
70010;SDS011;59543;37.950;-122.338;2023-08-31T00:07:21;42.35;;;25.00;;
70010;SDS011;59543;37.950;-122.338;2023-08-31T00:09:47;47.92;;;24.55;;
70010;SDS011;59543;37.950;-122.338;2023-08-31T00:12:15;51.58;;;25.67;;
70010;SDS011;59543;37.950;-122.338;2023-08-31T00:14:41;49.22;;;24.15;;
70010;SDS011;59543;37.950;-122.338;2023-08-31T00:17:07;45.45;;;25.63;;
70010;SDS011;59543;37.950;-122.338;2023-08-31T00:19:34;49.30;;;24.48;;
70010;SDS011;59543;37.950;-122.338;2023-08-31T00:22:00;38.63;;;25.50;;
70010;SDS011;59543;37.950;-122.338;2023-08-31T00:24:27;46.28;;;27.58;;
70010;SDS011;59543;37.950;-122.338;2023-08-31T00:26:57;46.75;;;25.05;;
70010;SDS011;59543;37.950;-122.338;2023-08-31T00:29:23;42.47;;;25.48;;
70010;SDS011;59543;37.950;-122.338;2023-08-31T00:31:50;50.78;;;26.58;;
70010;SDS011;59543;37.950;-122.338;2023-08-31T00:34:18;52.72;;;26.08;;
70010;SDS011;59543;37.950;-122.338;2023-08-31T00:36:45;50.28;;;25.63;;
70010;SDS011;59543;37.950;-122.338;2023-08-31T00:39:11;56.83;;;26.45;;
70010;SDS011;59543;37.950;-122.338;2023-08-31T00:41:38;48.88;;;25.92;;
70010;SDS011;59543;37.950;-122.338;2023-08-31T00:44:04;52.55;;;26.38;;
70010;SDS011;59543;37.950;-122.338;2023-08-31T00:46:31;51.08;;;24.48;;
70010;SDS011;59543;37.950;-122.338;2023-08-31T00:48:58;91.55;;;27.73;;
70010;SDS011;59543;37.950;-122.338;2023-08-31T00:51:25;54.65;;;25.77;;
70010;SDS011;59543;37.950;-122.338;2023-08-31T00:53:52;47.20;;;25.35;;
70010;SDS011;59543;37.950;-122.338;2023-08-31T00:56:20;48.35;;;24.88;;
70010;SDS011;59543;37.950;-122.338;2023-08-31T00:58:47;53.10;;;25.02;;
70010;SDS011;59543;37.950;-122.338;2023-08-31T01:01:35;48.45;;;23.70;;
70010;SDS011;59543;37.950;-122.338;2023-08-31T01:04:29;60.40;;;24.27;;
70010;SDS011;59543;37.950;-122.338;2023-08-31T01:10:10;56.03;;;24.52;;
70010;SDS011;59543;37.950;-122.338;2023-08-31T01:12:44;58.03;;;23.75;;
70010;SDS011;59543;37.950;-122.338;2023-08-31T01:15:17;56.83;;;24.38;;
70010;SDS011;59543;37.950;-122.338;2023-08-31T01:17:48;58.03;;;25.35;;
70010;SDS011;59543;37.950;-122.338;2023-08-31T01:20:34;58.40;;;23.33;;
70010;SDS011;59543;37.950;-122.338;2023-08-31T01:23:10;67.82;;;24.58;;
70010;SDS011;59543;37.950;-122.338;2023-08-31T01:25:39;54.67;;;22.65;;
70010;SDS011;59543;37.950;-122.338;2023-08-31T01:28:08;62.95;;;23.75;;
70010;SDS011;59543;37.950;-122.338;2023-08-31T01:30:36;61.38;;;22.95;;
70010;SDS011;59543;37.950;-122.338;2023-08-31T01:33:02;56.47;;;23.38;;
70010;SDS011;59543;37.950;-122.338;2023-08-31T01:35:40;49.03;;;21.58;;
70010;SDS011;59543;37.950;-122.338;2023-08-31T01:38:16;51.05;;;23.02;;
70010;SDS011;59543;37.950;-122.338;2023-08-31T01:43:33;55.78;;;22.63;;
70010;SDS011;59543;37.950;-122.338;2023-08-31T01:46:00;58.10;;;21.42;;
70010;SDS011;59543;37.950;-122.338;2023-08-31T01:48:28;58.10;;;21.83;;
70010;SDS011;59543;37.950;-122.338;2023-08-31T01:50:54;65.90;;;22.50;;
70010;SDS011;59543;37.950;-122.338;2023-08-31T01:53:20;65.65;;;22.05;;
70010;SDS011;59543;37.950;-122.338;2023-08-31T01:55:48;58.13;;;21.50;;
70010;SDS011;59543;37.950;-122.338;2023-08-31T01:58:14;49.10;;;20.17;;
70010;SDS011;59543;37.950;-122.338;2023-08-31T02:00:40;44.67;;;19.30;;
70010;SDS011;59543;37.950;-122.338;2023-08-31T02:03:07;68.28;;;21.67;;
70010;SDS011;59543;37.950;-122.338;2023-08-31T02:05:33;65.30;;;21.58;;
70010;SDS011;59543;37.950;-122.338;2023-08-31T02:07:59;58.65;;;20.10;;
70010;SDS011;59543;37.950;-122.338;2023-08-31T02:10:25;60.72;;;20.98;;
70010;SDS011;59543;37.950;-122.338;2023-08-31T02:12:52;51.65;;;20.45;;
70010;SDS011;59543;37.950;-122.338;2023-08-31T02:15:19;63.08;;;21.20;;
70010;SDS011;59543;37.950;-122.338;2023-08-31T02:17:45;57.75;;;19.40;;
70010;SDS011;59543;37.950;-122.338;2023-08-31T02:20:11;56.55;;;19.75;;
70010;SDS011;59543;37.950;-122.338;2023-08-31T02:22:39;68.75;;;20.73;;
70010;SDS011;59543;37.950;-122.338;2023-08-31T02:25:05;53.92;;;19.45;;
70010;SDS011;59543;37.950;-122.338;2023-08-31T02:27:32;50.13;;;19.73;;
70010;SDS011;59543;37.950;-122.338;2023-08-31T02:29:58;64.30;;;20.10;;
70010;SDS011;59543;37.950;-122.338;2023-08-31T02:32:24;58.53;;;19.95;;
70010;SDS011;59543;37.950;-122.338;2023-08-31T02:34:51;56.35;;;19.67;;
70010;SDS011;59543;37.950;-122.338;2023-08-31T02:37:17;64.78;;;20.60;;
70010;SDS011;59543;37.950;-122.338;2023-08-31T02:39:44;70.53;;;20.65;;
70010;SDS011;59543;37.950;-122.338;2023-08-31T02:42:10;53.58;;;18.80;;
70010;SDS011;59543;37.950;-122.338;2023-08-31T02:44:36;58.63;;;20.70;;
70010;SDS011;59543;37.950;-122.338;2023-08-31T02:47:02;63.78;;;20.13;;
70010;SDS011;59543;37.950;-122.338;2023-08-31T02:49:28;54.88;;;19.70;;
70010;SDS011;59543;37.950;-122.338;2023-08-31T02:51:55;64.80;;;20.05;;
70010;SDS011;59543;37.950;-122.338;2023-08-31T02:54:21;62.78;;;19.55;;
70010;SDS011;59543;37.950;-122.338;2023-08-31T02:56:47;71.60;;;20.80;;
70010;SDS011;59543;37.950;-122.338;2023-08-31T02:59:13;53.65;;;18.88;;
70010;SDS011;59543;37.950;-122.338;2023-08-31T03:01:40;57.58;;;19.92;;
70010;SDS011;59543;37.950;-122.338;2023-08-31T03:04:06;62.20;;;20.25;;
70010;SDS011;59543;37.950;-122.338;2023-08-31T03:06:32;72.53;;;20.55;;
70010;SDS011;59543;37.950;-122.338;2023-08-31T03:08:58;68.40;;;20.80;;
70010;SDS011;59543;37.950;-122.338;2023-08-31T03:11:25;67.30;;;20.13;;
70010;SDS011;59543;37.950;-122.338;2023-08-31T03:13:51;60.17;;;19.60;;
70010;SDS011;59543;37.950;-122.338;2023-08-31T03:16:17;98.55;;;21.92;;
70010;SDS011;59543;37.950;-122.338;2023-08-31T03:18:43;80.10;;;20.92;;
70010;SDS011;59543;37.950;-122.338;2023-08-31T03:21:09;70.53;;;20.88;;
70010;SDS011;59543;37.950;-122.338;2023-08-31T03:23:36;84.65;;;21.35;;
70010;SDS011;59543;37.950;-122.338;2023-08-31T03:26:09;68.53;;;20.08;;
70010;SDS011;59543;37.950;-122.338;2023-08-31T03:28:35;62.58;;;17.45;;
70010;SDS011;59543;37.950;-122.338;2023-08-31T03:31:01;74.85;;;18.83;;
70010;SDS011;59543;37.950;-122.338;2023-08-31T03:33:28;61.42;;;19.05;;
70010;SDS011;59543;37.950;-122.338;2023-08-31T03:35:54;66.25;;;18.80;;
70010;SDS011;59543;37.950;-122.338;2023-08-31T03:38:25;65.47;;;18.08;;
70010;SDS011;59543;37.950;-122.338;2023-08-31T03:40:55;66.00;;;17.95;;
70010;SDS011;59543;37.950;-122.338;2023-08-31T03:43:22;75.43;;;18.75;;
70010;SDS011;59543;37.950;-122.338;2023-08-31T03:45:49;64.05;;;18.58;;
70010;SDS011;59543;37.950;-122.338;2023-08-31T03:48:23;60.60;;;16.95;;
70010;SDS011;59543;37.950;-122.338;2023-08-31T03:50:50;77.65;;;18.15;;
70010;SDS011;59543;37.950;-122.338;2023-08-31T03:53:18;79.95;;;20.60;;
70010;SDS011;59543;37.950;-122.338;2023-08-31T03:55:44;68.00;;;19.70;;
70010;SDS011;59543;37.950;-122.338;2023-08-31T03:58:11;62.40;;;17.55;;
70010;SDS011;59543;37.950;-122.338;2023-08-31T04:00:37;63.45;;;17.80;;
70010;SDS011;59543;37.950;-122.338;2023-08-31T04:03:04;71.25;;;19.98;;
70010;SDS011;59543;37.950;-122.338;2023-08-31T04:05:54;80.60;;;19.90;;
70010;SDS011;59543;37.950;-122.338;2023-08-31T04:08:21;82.97;;;20.30;;
70010;SDS011;59543;37.950;-122.338;2023-08-31T04:10:47;77.78;;;20.58;;
70010;SDS011;59543;37.950;-122.338;2023-08-31T04:13:14;64.18;;;19.33;;
70010;SDS011;59543;37.950;-122.338;2023-08-31T04:15:40;67.05;;;19.17;;
70010;SDS011;59543;37.950;-122.338;2023-08-31T04:18:07;82.13;;;19.85;;
70010;SDS011;59543;37.950;-122.338;2023-08-31T04:20:33;82.97;;;20.52;;
70010;SDS011;59543;37.950;-122.338;2023-08-31T04:22:59;71.32;;;19.48;;
70010;SDS011;59543;37.950;-122.338;2023-08-31T04:25:28;80.43;;;19.52;;
70010;SDS011;59543;37.950;-122.338;2023-08-31T04:27:56;72.45;;;19.02;;
70010;SDS011;59543;37.950;-122.338;2023-08-31T04:30:23;79.53;;;20.90;;
70010;SDS011;59543;37.950;-122.338;2023-08-31T04:32:49;81.88;;;19.95;;
70010;SDS011;59543;37.950;-122.338;2023-08-31T04:35:15;78.38;;;19.50;;
70010;SDS011;59543;37.950;-122.338;2023-08-31T04:37:42;79.65;;;19.85;;
70010;SDS011;59543;37.950;-122.338;2023-08-31T04:40:10;79.15;;;18.75;;
70010;SDS011;59543;37.950;-122.338;2023-08-31T04:42:37;74.38;;;19.30;;
70010;SDS011;59543;37.950;-122.338;2023-08-31T04:45:04;86.53;;;20.50;;
70010;SDS011;59543;37.950;-122.338;2023-08-31T04:47:31;76.13;;;19.20;;
70010;SDS011;59543;37.950;-122.338;2023-08-31T04:49:58;92.70;;;21.15;;
70010;SDS011;59543;37.950;-122.338;2023-08-31T04:52:24;76.28;;;19.50;;
70010;SDS011;59543;37.950;-122.338;2023-08-31T04:54:51;75.80;;;20.20;;
70010;SDS011;59543;37.950;-122.338;2023-08-31T04:57:17;86.32;;;20.58;;
70010;SDS011;59543;37.950;-122.338;2023-08-31T04:59:45;85.35;;;20.40;;
70010;SDS011;59543;37.950;-122.338;2023-08-31T05:02:11;75.47;;;19.35;;
70010;SDS011;59543;37.950;-122.338;2023-08-31T05:04:38;88.35;;;20.10;;
70010;SDS011;59543;37.950;-122.338;2023-08-31T05:07:04;74.22;;;18.98;;
70010;SDS011;59543;37.950;-122.338;2023-08-31T05:09:30;87.10;;;20.75;;
70010;SDS011;59543;37.950;-122.338;2023-08-31T05:12:00;72.85;;;19.23;;
70010;SDS011;59543;37.950;-122.338;2023-08-31T05:14:30;86.72;;;20.75;;
70010;SDS011;59543;37.950;-122.338;2023-08-31T05:16:56;77.90;;;19.60;;
70010;SDS011;59543;37.950;-122.338;2023-08-31T05:19:22;83.32;;;20.40;;
70010;SDS011;59543;37.950;-122.338;2023-08-31T05:21:48;82.88;;;20.73;;
70010;SDS011;59543;37.950;-122.338;2023-08-31T05:24:15;80.45;;;21.00;;
70010;SDS011;59543;37.950;-122.338;2023-08-31T05:26:41;75.88;;;19.25;;
70010;SDS011;59543;37.950;-122.338;2023-08-31T05:29:07;81.78;;;20.02;;
70010;SDS011;59543;37.950;-122.338;2023-08-31T05:31:33;83.82;;;20.40;;
70010;SDS011;59543;37.950;-122.338;2023-08-31T05:33:59;87.85;;;21.17;;
70010;SDS011;59543;37.950;-122.338;2023-08-31T05:36:26;79.70;;;21.23;;
70010;SDS011;59543;37.950;-122.338;2023-08-31T05:38:52;82.85;;;20.90;;
70010;SDS011;59543;37.950;-122.338;2023-08-31T05:41:18;84.90;;;20.60;;
70010;SDS011;59543;37.950;-122.338;2023-08-31T05:43:44;73.22;;;18.88;;
70010;SDS011;59543;37.950;-122.338;2023-08-31T05:46:11;71.22;;;18.77;;
70010;SDS011;59543;37.950;-122.338;2023-08-31T05:48:37;61.50;;;17.92;;
70010;SDS011;59543;37.950;-122.338;2023-08-31T05:51:03;64.22;;;17.85;;
70010;SDS011;59543;37.950;-122.338;2023-08-31T05:53:30;74.15;;;17.90;;
70010;SDS011;59543;37.950;-122.338;2023-08-31T05:55:57;71.18;;;19.58;;
70010;SDS011;59543;37.950;-122.338;2023-08-31T05:58:30;65.70;;;19.92;;
70010;SDS011;59543;37.950;-122.338;2023-08-31T06:00:58;73.85;;;19.45;;
70010;SDS011;59543;37.950;-122.338;2023-08-31T06:03:25;76.93;;;20.25;;
70010;SDS011;59543;37.950;-122.338;2023-08-31T06:05:51;64.40;;;19.65;;
70010;SDS011;59543;37.950;-122.338;2023-08-31T06:08:17;80.00;;;20.02;;
70010;SDS011;59543;37.950;-122.338;2023-08-31T06:10:44;67.03;;;19.83;;
70010;SDS011;59543;37.950;-122.338;2023-08-31T06:13:10;72.55;;;20.15;;
70010;SDS011;59543;37.950;-122.338;2023-08-31T06:15:36;72.28;;;19.30;;
70010;SDS011;59543;37.950;-122.338;2023-08-31T06:18:02;70.95;;;18.83;;
70010;SDS011;59543;37.950;-122.338;2023-08-31T06:20:29;72.10;;;20.48;;
70010;SDS011;59543;37.950;-122.338;2023-08-31T06:22:55;75.57;;;19.58;;
70010;SDS011;59543;37.950;-122.338;2023-08-31T06:25:21;69.78;;;18.95;;
70010;SDS011;59543;37.950;-122.338;2023-08-31T06:27:48;70.40;;;19.50;;
70010;SDS011;59543;37.950;-122.338;2023-08-31T06:30:14;66.22;;;19.10;;
70010;SDS011;59543;37.950;-122.338;2023-08-31T06:32:44;67.63;;;19.45;;
70010;SDS011;59543;37.950;-122.338;2023-08-31T06:35:12;79.30;;;20.65;;
70010;SDS011;59543;37.950;-122.338;2023-08-31T06:37:41;83.07;;;21.63;;
70010;SDS011;59543;37.950;-122.338;2023-08-31T06:40:08;85.75;;;20.83;;
70010;SDS011;59543;37.950;-122.338;2023-08-31T06:42:35;84.93;;;20.95;;
70010;SDS011;59543;37.950;-122.338;2023-08-31T06:45:03;84.80;;;20.33;;
70010;SDS011;59543;37.950;-122.338;2023-08-31T06:47:30;77.55;;;20.98;;
70010;SDS011;59543;37.950;-122.338;2023-08-31T06:49:57;85.25;;;21.48;;
70010;SDS011;59543;37.950;-122.338;2023-08-31T06:52:23;76.75;;;21.25;;
70010;SDS011;59543;37.950;-122.338;2023-08-31T06:54:50;99.80;;;21.20;;
70010;SDS011;59543;37.950;-122.338;2023-08-31T06:57:21;76.88;;;20.10;;
70010;SDS011;59543;37.950;-122.338;2023-08-31T06:59:48;82.43;;;21.95;;
70010;SDS011;59543;37.950;-122.338;2023-08-31T07:02:14;81.85;;;20.02;;
70010;SDS011;59543;37.950;-122.338;2023-08-31T07:04:40;77.60;;;20.23;;
70010;SDS011;59543;37.950;-122.338;2023-08-31T07:07:07;81.22;;;20.50;;
70010;SDS011;59543;37.950;-122.338;2023-08-31T07:09:34;91.47;;;22.33;;
70010;SDS011;59543;37.950;-122.338;2023-08-31T07:12:00;87.28;;;21.52;;
70010;SDS011;59543;37.950;-122.338;2023-08-31T07:14:27;88.20;;;21.63;;
70010;SDS011;59543;37.950;-122.338;2023-08-31T07:16:53;70.82;;;20.25;;
70010;SDS011;59543;37.950;-122.338;2023-08-31T07:19:20;94.38;;;23.23;;
70010;SDS011;59543;37.950;-122.338;2023-08-31T07:21:46;85.93;;;21.42;;
70010;SDS011;59543;37.950;-122.338;2023-08-31T07:24:13;84.00;;;21.38;;
70010;SDS011;59543;37.950;-122.338;2023-08-31T07:26:39;89.63;;;22.63;;
70010;SDS011;59543;37.950;-122.338;2023-08-31T07:29:05;96.80;;;22.10;;
70010;SDS011;59543;37.950;-122.338;2023-08-31T07:31:31;95.60;;;23.38;;
70010;SDS011;59543;37.950;-122.338;2023-08-31T07:33:58;97.88;;;23.50;;
70010;SDS011;59543;37.950;-122.338;2023-08-31T07:36:24;90.93;;;22.67;;
70010;SDS011;59543;37.950;-122.338;2023-08-31T07:38:51;99.97;;;24.23;;
70010;SDS011;59543;37.950;-122.338;2023-08-31T07:41:17;96.65;;;22.30;;
70010;SDS011;59543;37.950;-122.338;2023-08-31T07:43:43;98.18;;;23.90;;
70010;SDS011;59543;37.950;-122.338;2023-08-31T07:46:09;95.25;;;22.52;;
70010;SDS011;59543;37.950;-122.338;2023-08-31T07:48:35;85.07;;;22.15;;
70010;SDS011;59543;37.950;-122.338;2023-08-31T07:51:02;102.90;;;22.25;;
70010;SDS011;59543;37.950;-122.338;2023-08-31T07:53:28;90.95;;;22.05;;
70010;SDS011;59543;37.950;-122.338;2023-08-31T07:55:55;93.78;;;22.23;;
70010;SDS011;59543;37.950;-122.338;2023-08-31T07:58:25;92.13;;;22.63;;
70010;SDS011;59543;37.950;-122.338;2023-08-31T08:00:57;103.45;;;24.60;;
70010;SDS011;59543;37.950;-122.338;2023-08-31T08:03:23;89.82;;;22.83;;
70010;SDS011;59543;37.950;-122.338;2023-08-31T08:05:50;92.53;;;23.60;;
70010;SDS011;59543;37.950;-122.338;2023-08-31T08:08:17;86.57;;;22.05;;
70010;SDS011;59543;37.950;-122.338;2023-08-31T08:10:43;78.53;;;21.88;;
70010;SDS011;59543;37.950;-122.338;2023-08-31T08:13:09;87.63;;;21.77;;
70010;SDS011;59543;37.950;-122.338;2023-08-31T08:15:36;87.95;;;22.52;;
70010;SDS011;59543;37.950;-122.338;2023-08-31T08:18:03;77.55;;;21.38;;
70010;SDS011;59543;37.950;-122.338;2023-08-31T08:20:29;93.15;;;22.73;;
70010;SDS011;59543;37.950;-122.338;2023-08-31T08:22:56;86.18;;;21.77;;
70010;SDS011;59543;37.950;-122.338;2023-08-31T08:25:23;82.03;;;22.00;;
70010;SDS011;59543;37.950;-122.338;2023-08-31T08:27:50;75.10;;;21.35;;
70010;SDS011;59543;37.950;-122.338;2023-08-31T08:30:16;85.82;;;21.30;;
70010;SDS011;59543;37.950;-122.338;2023-08-31T08:32:44;78.30;;;20.98;;
70010;SDS011;59543;37.950;-122.338;2023-08-31T08:35:10;72.20;;;20.73;;
70010;SDS011;59543;37.950;-122.338;2023-08-31T08:37:36;77.93;;;21.58;;
70010;SDS011;59543;37.950;-122.338;2023-08-31T08:40:02;77.43;;;20.67;;
70010;SDS011;59543;37.950;-122.338;2023-08-31T08:42:29;74.47;;;21.05;;
70010;SDS011;59543;37.950;-122.338;2023-08-31T08:45:01;66.28;;;20.42;;
70010;SDS011;59543;37.950;-122.338;2023-08-31T08:47:29;76.80;;;20.38;;
70010;SDS011;59543;37.950;-122.338;2023-08-31T08:49:58;90.18;;;20.75;;
70010;SDS011;59543;37.950;-122.338;2023-08-31T08:52:27;87.78;;;22.98;;
70010;SDS011;59543;37.950;-122.338;2023-08-31T08:54:54;94.72;;;22.88;;
70010;SDS011;59543;37.950;-122.338;2023-08-31T08:57:22;101.70;;;22.90;;
70010;SDS011;59543;37.950;-122.338;2023-08-31T08:59:48;99.68;;;23.95;;
70010;SDS011;59543;37.950;-122.338;2023-08-31T09:02:14;78.78;;;22.23;;
70010;SDS011;59543;37.950;-122.338;2023-08-31T09:04:40;82.60;;;21.40;;
70010;SDS011;59543;37.950;-122.338;2023-08-31T09:07:07;94.03;;;23.27;;
70010;SDS011;59543;37.950;-122.338;2023-08-31T09:09:36;96.07;;;22.98;;
70010;SDS011;59543;37.950;-122.338;2023-08-31T09:12:15;86.35;;;21.67;;
70010;SDS011;59543;37.950;-122.338;2023-08-31T09:14:41;95.35;;;22.77;;
70010;SDS011;59543;37.950;-122.338;2023-08-31T09:17:08;87.68;;;20.60;;
70010;SDS011;59543;37.950;-122.338;2023-08-31T09:19:34;94.80;;;22.40;;
70010;SDS011;59543;37.950;-122.338;2023-08-31T09:22:00;104.97;;;24.65;;
70010;SDS011;59543;37.950;-122.338;2023-08-31T09:24:27;83.80;;;22.35;;
70010;SDS011;59543;37.950;-122.338;2023-08-31T09:26:58;84.25;;;21.08;;
70010;SDS011;59543;37.950;-122.338;2023-08-31T09:29:24;87.25;;;20.50;;
70010;SDS011;59543;37.950;-122.338;2023-08-31T09:31:51;74.95;;;20.10;;
70010;SDS011;59543;37.950;-122.338;2023-08-31T09:34:18;74.80;;;20.77;;
70010;SDS011;59543;37.950;-122.338;2023-08-31T09:36:44;92.35;;;20.67;;
70010;SDS011;59543;37.950;-122.338;2023-08-31T09:39:12;73.43;;;20.90;;
70010;SDS011;59543;37.950;-122.338;2023-08-31T09:41:55;93.25;;;22.95;;
70010;SDS011;59543;37.950;-122.338;2023-08-31T09:44:22;99.88;;;23.05;;
70010;SDS011;59543;37.950;-122.338;2023-08-31T09:46:48;106.95;;;22.88;;
70010;SDS011;59543;37.950;-122.338;2023-08-31T09:49:15;81.65;;;21.40;;
70010;SDS011;59543;37.950;-122.338;2023-08-31T09:51:46;84.10;;;20.80;;
70010;SDS011;59543;37.950;-122.338;2023-08-31T09:54:14;86.10;;;22.27;;
70010;SDS011;59543;37.950;-122.338;2023-08-31T09:56:46;90.38;;;21.27;;
70010;SDS011;59543;37.950;-122.338;2023-08-31T09:59:13;92.28;;;21.05;;
70010;SDS011;59543;37.950;-122.338;2023-08-31T10:01:41;90.43;;;21.42;;
70010;SDS011;59543;37.950;-122.338;2023-08-31T10:04:10;83.70;;;20.15;;
70010;SDS011;59543;37.950;-122.338;2023-08-31T10:06:41;106.53;;;22.80;;
70010;SDS011;59543;37.950;-122.338;2023-08-31T10:09:08;97.18;;;22.02;;
70010;SDS011;59543;37.950;-122.338;2023-08-31T10:11:38;75.05;;;20.60;;
70010;SDS011;59543;37.950;-122.338;2023-08-31T10:14:05;87.50;;;21.73;;
70010;SDS011;59543;37.950;-122.338;2023-08-31T10:16:33;90.95;;;22.08;;
70010;SDS011;59543;37.950;-122.338;2023-08-31T10:18:59;88.07;;;22.23;;
70010;SDS011;59543;37.950;-122.338;2023-08-31T10:21:25;97.10;;;22.42;;
70010;SDS011;59543;37.950;-122.338;2023-08-31T10:23:52;88.57;;;22.10;;
70010;SDS011;59543;37.950;-122.338;2023-08-31T10:26:28;82.55;;;20.55;;
70010;SDS011;59543;37.950;-122.338;2023-08-31T10:28:56;87.97;;;22.02;;
70010;SDS011;59543;37.950;-122.338;2023-08-31T10:31:23;87.38;;;21.60;;
70010;SDS011;59543;37.950;-122.338;2023-08-31T10:33:57;93.07;;;23.05;;
70010;SDS011;59543;37.950;-122.338;2023-08-31T10:36:35;82.83;;;20.03;;
70010;SDS011;59543;37.950;-122.338;2023-08-31T10:41:41;77.65;;;20.33;;
70010;SDS011;59543;37.950;-122.338;2023-08-31T10:44:18;86.03;;;20.92;;
70010;SDS011;59543;37.950;-122.338;2023-08-31T10:46:46;101.40;;;20.70;;
70010;SDS011;59543;37.950;-122.338;2023-08-31T10:49:14;97.75;;;21.92;;
70010;SDS011;59543;37.950;-122.338;2023-08-31T10:52:15;95.50;;;22.40;;
70010;SDS011;59543;37.950;-122.338;2023-08-31T10:54:40;93.90;;;21.58;;
70010;SDS011;59543;37.950;-122.338;2023-08-31T10:57:06;75.55;;;19.83;;
70010;SDS011;59543;37.950;-122.338;2023-08-31T11:05:08;94.68;;;21.38;;
70010;SDS011;59543;37.950;-122.338;2023-08-31T11:07:35;85.63;;;20.85;;
70010;SDS011;59543;37.950;-122.338;2023-08-31T11:12:49;95.05;;;21.00;;
70010;SDS011;59543;37.950;-122.338;2023-08-31T11:15:18;94.38;;;21.77;;
70010;SDS011;59543;37.950;-122.338;2023-08-31T11:17:46;89.82;;;20.92;;
70010;SDS011;59543;37.950;-122.338;2023-08-31T11:20:15;79.60;;;20.40;;
70010;SDS011;59543;37.950;-122.338;2023-08-31T11:22:43;87.05;;;20.83;;
70010;SDS011;59543;37.950;-122.338;2023-08-31T11:25:12;104.90;;;21.35;;
70010;SDS011;59543;37.950;-122.338;2023-08-31T11:27:39;106.30;;;22.30;;
70010;SDS011;59543;37.950;-122.338;2023-08-31T11:30:14;108.90;;;23.65;;
70010;SDS011;59543;37.950;-122.338;2023-08-31T11:32:47;106.65;;;23.00;;
70010;SDS011;59543;37.950;-122.338;2023-08-31T11:35:14;112.53;;;22.73;;
70010;SDS011;59543;37.950;-122.338;2023-08-31T11:37:42;106.43;;;22.20;;
70010;SDS011;59543;37.950;-122.338;2023-08-31T11:40:10;95.18;;;21.25;;
70010;SDS011;59543;37.950;-122.338;2023-08-31T11:42:39;96.80;;;21.95;;
70010;SDS011;59543;37.950;-122.338;2023-08-31T11:45:06;100.68;;;21.42;;
70010;SDS011;59543;37.950;-122.338;2023-08-31T11:47:33;96.63;;;22.38;;
70010;SDS011;59543;37.950;-122.338;2023-08-31T11:50:00;98.90;;;21.10;;
70010;SDS011;59543;37.950;-122.338;2023-08-31T11:52:32;107.25;;;22.65;;
70010;SDS011;59543;37.950;-122.338;2023-08-31T11:54:58;98.88;;;20.80;;
70010;SDS011;59543;37.950;-122.338;2023-08-31T11:57:25;85.78;;;21.13;;
70010;SDS011;59543;37.950;-122.338;2023-08-31T11:59:54;90.93;;;21.55;;
70010;SDS011;59543;37.950;-122.338;2023-08-31T12:02:23;98.88;;;22.48;;
70010;SDS011;59543;37.950;-122.338;2023-08-31T12:04:50;93.72;;;21.42;;
70010;SDS011;59543;37.950;-122.338;2023-08-31T12:07:17;98.35;;;22.13;;
70010;SDS011;59543;37.950;-122.338;2023-08-31T12:09:47;94.68;;;20.70;;
70010;SDS011;59543;37.950;-122.338;2023-08-31T12:12:14;92.43;;;20.90;;
70010;SDS011;59543;37.950;-122.338;2023-08-31T12:14:41;99.13;;;21.42;;
70010;SDS011;59543;37.950;-122.338;2023-08-31T12:17:09;95.13;;;22.35;;
70010;SDS011;59543;37.950;-122.338;2023-08-31T12:19:38;105.38;;;21.63;;
70010;SDS011;59543;37.950;-122.338;2023-08-31T12:22:05;94.20;;;21.17;;
70010;SDS011;59543;37.950;-122.338;2023-08-31T12:24:38;94.30;;;21.40;;
70010;SDS011;59543;37.950;-122.338;2023-08-31T12:27:08;100.82;;;22.15;;
70010;SDS011;59543;37.950;-122.338;2023-08-31T12:29:34;85.18;;;20.13;;
70010;SDS011;59543;37.950;-122.338;2023-08-31T12:32:01;90.13;;;21.38;;
70010;SDS011;59543;37.950;-122.338;2023-08-31T12:34:28;86.75;;;20.17;;
70010;SDS011;59543;37.950;-122.338;2023-08-31T12:36:56;93.55;;;21.42;;
70010;SDS011;59543;37.950;-122.338;2023-08-31T12:39:25;110.07;;;22.77;;
70010;SDS011;59543;37.950;-122.338;2023-08-31T12:41:52;84.63;;;19.98;;
70010;SDS011;59543;37.950;-122.338;2023-08-31T12:44:18;88.03;;;19.83;;
70010;SDS011;59543;37.950;-122.338;2023-08-31T12:46:44;85.60;;;20.75;;
70010;SDS011;59543;37.950;-122.338;2023-08-31T12:49:11;73.88;;;19.13;;
70010;SDS011;59543;37.950;-122.338;2023-08-31T12:51:37;84.72;;;21.27;;
70010;SDS011;59543;37.950;-122.338;2023-08-31T12:54:03;89.82;;;20.65;;
70010;SDS011;59543;37.950;-122.338;2023-08-31T12:56:29;76.60;;;20.77;;
70010;SDS011;59543;37.950;-122.338;2023-08-31T12:58:56;80.65;;;18.60;;
70010;SDS011;59543;37.950;-122.338;2023-08-31T13:01:22;85.45;;;19.88;;
70010;SDS011;59543;37.950;-122.338;2023-08-31T13:03:49;79.95;;;19.55;;
70010;SDS011;59543;37.950;-122.338;2023-08-31T13:06:15;95.07;;;20.20;;
70010;SDS011;59543;37.950;-122.338;2023-08-31T13:08:42;92.55;;;21.38;;
70010;SDS011;59543;37.950;-122.338;2023-08-31T13:11:10;85.18;;;19.95;;
70010;SDS011;59543;37.950;-122.338;2023-08-31T13:13:38;98.00;;;20.58;;
70010;SDS011;59543;37.950;-122.338;2023-08-31T13:16:04;79.00;;;19.33;;
70010;SDS011;59543;37.950;-122.338;2023-08-31T13:18:30;75.28;;;19.02;;
70010;SDS011;59543;37.950;-122.338;2023-08-31T13:20:57;80.85;;;19.50;;
70010;SDS011;59543;37.950;-122.338;2023-08-31T13:23:23;80.72;;;18.25;;
70010;SDS011;59543;37.950;-122.338;2023-08-31T13:25:50;83.85;;;19.25;;
70010;SDS011;59543;37.950;-122.338;2023-08-31T13:28:17;73.35;;;18.38;;
70010;SDS011;59543;37.950;-122.338;2023-08-31T13:30:43;92.65;;;18.67;;
70010;SDS011;59543;37.950;-122.338;2023-08-31T13:33:10;82.65;;;19.73;;
70010;SDS011;59543;37.950;-122.338;2023-08-31T13:35:36;95.47;;;19.88;;
70010;SDS011;59543;37.950;-122.338;2023-08-31T13:38:02;87.13;;;19.50;;
70010;SDS011;59543;37.950;-122.338;2023-08-31T13:40:29;96.55;;;21.10;;
70010;SDS011;59543;37.950;-122.338;2023-08-31T13:42:56;86.95;;;19.08;;
70010;SDS011;59543;37.950;-122.338;2023-08-31T13:45:28;94.25;;;20.42;;
70010;SDS011;59543;37.950;-122.338;2023-08-31T13:47:58;85.05;;;19.88;;
70010;SDS011;59543;37.950;-122.338;2023-08-31T13:50:28;89.97;;;20.08;;
70010;SDS011;59543;37.950;-122.338;2023-08-31T13:52:54;93.32;;;19.85;;
70010;SDS011;59543;37.950;-122.338;2023-08-31T13:55:21;94.75;;;20.90;;
70010;SDS011;59543;37.950;-122.338;2023-08-31T13:57:48;113.55;;;20.58;;
70010;SDS011;59543;37.950;-122.338;2023-08-31T14:00:15;79.97;;;19.70;;
70010;SDS011;59543;37.950;-122.338;2023-08-31T14:02:42;82.65;;;20.13;;
70010;SDS011;59543;37.950;-122.338;2023-08-31T14:05:09;82.10;;;19.00;;